Time;durP1;ratioP1;P1;durP2;ratioP2;P2;SDS_P1;SDS_P2;PMS_P1;PMS_P2;Temp;Humidity;BMP_temperature;BMP_pressure;BME280_temperature;BME280_humidity;BME280_pressure;Samples;Min_cycle;Max_cycle;Signal;HPM_P1;HPM_P2
2023/05/27 00:01:26;;;;;;;;;;;;;;;5.48;100.00;100425.00;6152146;23;19912;-85
2023/05/27 00:03:52;;;;;;;;;;;;;;;5.43;100.00;100418.94;6153061;23;20417;-83
2023/05/27 00:06:17;;;;;;;;;;;;;;;5.43;100.00;100417.16;6155973;23;19940;-85
2023/05/27 00:08:42;;;;;;;;;;;;;;;5.45;100.00;100411.88;6156395;23;19916;-89
2023/05/27 00:11:40;;;;;;;;;;;;;;;5.42;100.00;100412.78;6156188;23;19912;-94
2023/05/27 00:14:08;;;;;;;;;;;;;;;5.43;100.00;100411.91;6091404;23;19969;-86
2023/05/27 00:20:22;;;;;;;;;;;;;;;;;;;;;
2023/05/27 00:22:59;;;;;;;;;;;;;;;;;;;;;
2023/05/27 00:26:02;;;;;;;;;;;;;;;5.43;100.00;100406.63;6036506;23;19988;-91
2023/05/27 00:28:28;;;;;;;;;;;;;;;5.45;100.00;100404.00;6005992;23;19925;-88
2023/05/27 00:34:00;;;;;;;;;;;;;;;5.43;100.00;100403.16;5969825;24;19915;-88
2023/05/27 03:18:05;;;;;;;;;;;;;;;7.72;100.00;100360.72;6143433;23;19975;-84
2023/05/27 03:20:30;;;;;;;;;;;;;;;7.76;100.00;100357.13;6125391;23;19917;-84
2023/05/27 03:22:56;;;;;;;;;;;;;;;7.81;100.00;100355.22;6099253;23;20372;-85
2023/05/27 03:25:21;;;;;;;;;;;;;;;7.84;100.00;100355.16;6126039;23;20313;-85
2023/05/27 03:27:46;;;;;;;;;;;;;;;7.82;100.00;100355.19;6125267;23;20273;-85
2023/05/27 03:30:16;;;;;;;;;;;;;;;7.94;100.00;100355.81;6124636;23;20322;-89
2023/05/27 03:32:42;;;;;;;;;;;;;;;7.94;100.00;100355.81;6123891;23;19964;-87
2023/05/27 03:35:09;;;;;;;;;;;;;;;7.95;100.00;100352.28;6125230;23;19917;-91
2023/05/27 03:37:37;;;;;;;;;;;;;;;7.93;100.00;100354.06;6125815;23;20309;-88
2023/05/27 03:41:00;;;;;;;;;;;;;;;;;;;;;
2023/05/27 03:43:22;;;;;;;;;;;;;;;8.07;100.00;100346.69;6033065;23;19968;-88
2023/05/27 03:52:16;;;;;;;;;;;;;;;;;;;;;
2023/05/27 03:55:01;;;;;;;;;;;;;;;8.13;100.00;100351.84;6032223;23;20406;-91
2023/05/27 03:57:42;;;;;;;;;;;;;;;;;;;;;
2023/05/27 04:00:19;;;;;;;;;;;;;;;8.14;100.00;100347.44;6073906;23;20278;-90
2023/05/27 04:03:05;;;;;;;;;;;;;;;8.21;100.00;100348.16;6125308;23;19952;-89
2023/05/27 04:05:34;;;;;;;;;;;;;;;8.19;100.00;100351.69;6100728;23;19913;-86
2023/05/27 04:08:27;;;;;;;;;;;;;;;8.27;100.00;100350.66;6127174;23;19920;-90
2023/05/27 04:11:05;;;;;;;;;;;;;;;;;;;;;
2023/05/27 04:13:35;;;;;;;;;;;;;;;8.28;100.00;100347.97;6126953;23;20008;-89
2023/05/27 04:16:09;;;;;;;;;;;;;;;8.31;100.00;100342.63;6126640;23;19913;-88
2023/05/27 04:19:00;;;;;;;;;;;;;;;8.42;100.00;100344.13;6109501;23;19963;-88
2023/05/27 04:24:32;;;;;;;;;;;;;;;;;;;;;
2023/05/27 04:27:07;;;;;;;;;;;;;;;;;;;;;
2023/05/27 04:29:43;;;;;;;;;;;;;;;8.44;100.00;100351.16;6156233;23;20292;-89
2023/05/27 04:32:32;;;;;;;;;;;;;;;8.45;100.00;100346.72;6154921;23;19913;-89
2023/05/27 04:34:58;;;;;;;;;;;;;;;8.47;100.00;100351.06;6156484;23;20340;-89
2023/05/27 04:37:23;;;;;;;;;;;;;;;8.44;100.00;100351.16;6156789;23;19984;-87
2023/05/27 04:39:49;;;;;;;;;;;;;;;8.53;100.00;100355.31;6156130;23;20321;-85
2023/05/27 04:42:15;;;;;;;;;;;;;;;8.50;100.00;100351.00;6130061;23;20040;-87
2023/05/27 04:44:40;;;;;;;;;;;;;;;8.50;100.00;100353.63;6156079;23;20031;-87
2023/05/27 07:30:27;;;;;;;;;;;;;;;6.89;100.00;100332.53;6149656;23;20362;-87
2023/05/27 07:36:24;;;;;;;;;;;;;;;6.86;100.00;100319.41;6147759;23;20383;-87
2023/05/27 07:39:12;;;;;;;;;;;;;;;6.84;100.00;100317.69;6144526;23;19920;-89
2023/05/27 07:41:40;;;;;;;;;;;;;;;6.85;100.00;100319.44;6140539;23;19917;-87
2023/05/27 07:44:27;;;;;;;;;;;;;;;6.83;100.00;100314.19;6126921;23;19916;-87
2023/05/27 07:47:03;;;;;;;;;;;;;;;6.83;100.00;100316.84;6128913;23;20218;-86
2023/05/27 07:49:43;;;;;;;;;;;;;;;6.84;100.00;100302.75;6128347;23;19940;-86
2023/05/27 07:52:09;;;;;;;;;;;;;;;6.72;100.00;100303.84;6154567;23;19924;-87
2023/05/27 07:54:37;;;;;;;;;;;;;;;6.65;100.00;100306.63;6128643;23;19923;-86
2023/05/27 07:57:12;;;;;;;;;;;;;;;;;;;;;
2023/05/27 07:59:40;;;;;;;;;;;;;;;6.76;100.00;100301.16;6153029;23;19995;-86
2023/05/27 08:02:06;;;;;;;;;;;;;;;6.68;100.00;100296.03;6154463;23;19924;-87
2023/05/27 08:04:32;;;;;;;;;;;;;;;6.61;100.00;100290.03;6154883;23;20316;-88
2023/05/27 08:07:00;;;;;;;;;;;;;;;6.71;100.00;100288.94;6154489;23;19916;-88
2023/05/27 08:09:48;;;;;;;;;;;;;;;6.67;100.00;100296.91;6128817;23;19913;-85
2023/05/27 08:12:16;;;;;;;;;;;;;;;6.62;100.00;100281.25;6128368;23;19912;-86
2023/05/27 08:14:43;;;;;;;;;;;;;;;6.65;100.00;100283.81;6152880;23;19913;-87
2023/05/27 08:17:20;;;;;;;;;;;;;;;6.57;100.00;100288.31;6128605;23;19916;-87
2023/05/27 08:19:47;;;;;;;;;;;;;;;6.57;100.00;100275.16;6128599;23;20232;-88
2023/05/27 08:22:30;;;;;;;;;;;;;;;6.61;100.00;100284.75;6154356;23;19964;-90
2023/05/27 08:25:17;;;;;;;;;;;;;;;6.52;100.00;100274.38;6129395;23;19913;-88
2023/05/27 08:28:03;;;;;;;;;;;;;;;6.53;100.00;100281.41;6155467;23;19912;-91
2023/05/27 08:33:17;;;;;;;;;;;;;;;6.54;100.00;100272.59;6139956;23;19919;-86
2023/05/27 08:36:08;;;;;;;;;;;;;;;6.44;100.00;100271.03;6155990;23;19921;-87
2023/05/27 08:38:38;;;;;;;;;;;;;;;6.42;100.00;100262.31;6113107;23;19936;-86
2023/05/27 08:41:09;;;;;;;;;;;;;;;6.45;100.00;100263.09;6155792;23;19912;-86
2023/05/27 08:43:44;;;;;;;;;;;;;;;6.38;100.00;100257.97;6129746;23;19919;-88
2023/05/27 08:46:28;;;;;;;;;;;;;;;6.39;100.00;100257.09;6156013;23;19952;-88
2023/05/27 08:49:19;;;;;;;;;;;;;;;6.39;100.00;100257.09;6155876;23;19917;-88
2023/05/27 08:54:39;;;;;;;;;;;;;;;6.38;100.00;100261.47;6114754;23;19999;-87
2023/05/27 08:57:36;;;;;;;;;;;;;;;6.34;100.00;100250.13;6130216;23;19951;-94
2023/05/27 09:00:11;;;;;;;;;;;;;;;6.45;100.00;100247.31;6089878;23;19964;-86
2023/05/27 09:02:46;;;;;;;;;;;;;;;6.38;100.00;100244.81;6155920;23;19912;-89
2023/05/27 09:06:01;;;;;;;;;;;;;;;6.39;100.00;100243.94;6129949;23;19956;-90
2023/05/27 09:09:18;;;;;;;;;;;;;;;;;;;;;
2023/05/27 09:11:50;;;;;;;;;;;;;;;6.53;100.00;100236.66;6063196;23;20326;-88
2023/05/27 09:15:01;;;;;;;;;;;;;;;;;;;;;
2023/05/27 09:17:23;;;;;;;;;;;;;;;6.44;100.00;100231.53;6151156;23;19920;-87
2023/05/27 09:20:10;;;;;;;;;;;;;;;;;;;;;
2023/05/27 09:26:08;;;;;;;;;;;;;;;6.39;100.00;100231.63;6155524;23;20003;-89
2023/05/27 09:31:09;;;;;;;;;;;;;;;6.40;100.00;100217.59;6154877;23;20313;-88
2023/05/27 09:33:52;;;;;;;;;;;;;;;;;;;;;
2023/05/27 09:39:41;;;;;;;;;;;;;;;6.40;100.00;100220.22;6050407;23;19959;-87
2023/05/27 09:42:19;;;;;;;;;;;;;;;6.54;100.00;100225.19;6017081;23;19922;-87
2023/05/27 09:44:58;;;;;;;;;;;;;;;6.35;100.00;100215.03;6063764;23;19978;-86
2023/05/27 09:47:50;;;;;;;;;;;;;;;6.34;100.00;100212.44;6130566;23;19912;-86
2023/05/27 09:50:41;;;;;;;;;;;;;;;6.32;100.00;100222.13;6172341;23;19913;-86
2023/05/27 09:53:40;;;;;;;;;;;;;;;6.42;100.00;100213.16;6158440;23;19943;-87
2023/05/27 09:56:42;;;;;;;;;;;;;;;6.42;100.00;100204.38;6064784;23;20240;-86
2023/05/27 09:59:39;;;;;;;;;;;;;;;6.40;100.00;100212.31;6110848;23;19908;-88
2023/05/27 10:02:25;;;;;;;;;;;;;;;6.38;100.00;100205.34;6184288;23;19912;-85
2023/05/27 10:05:21;;;;;;;;;;;;;;;;;;;;;
2023/05/27 10:11:39;;;;;;;;;;;;;;;6.28;100.00;100194.13;6054904;23;19966;-88
2023/05/27 10:18:00;;;;;;;;;;;;;;;;;;;;;
2023/05/27 10:21:07;;;;;;;;;;;;;;;;;;;;;
2023/05/27 10:23:49;;;;;;;;;;;;;;;6.33;100.00;100185.25;6127734;23;20293;-88
2023/05/27 10:26:52;;;;;;;;;;;;;;;6.29;100.00;100190.59;6185365;23;19912;-85
2023/05/27 10:29:43;;;;;;;;;;;;;;;6.33;100.00;100193.16;6059872;23;19944;-87
2023/05/27 10:39:11;;;;;;;;;;;;;;;;;;;;;
2023/05/27 10:42:15;;;;;;;;;;;;;;;;;;;;;
2023/05/27 10:51:27;;;;;;;;;;;;;;;;;;;;;
2023/05/27 10:54:52;;;;;;;;;;;;;;;6.41;100.00;100178.97;6154960;23;20270;-89
2023/05/27 10:57:02;;;;;;;;;;;;;;;6.36;100.00;100173.78;6143517;23;20256;-89
2023/05/27 10:59:46;;;;;;;;;;;;;;;;;;;;;
2023/05/27 11:02:36;;;;;;;;;;;;;;;;;;;;;
2023/05/27 11:12:08;;;;;;;;;;;;;;;6.28;100.00;100159.91;6060417;23;19977;-89
2023/05/27 11:18:23;;;;;;;;;;;;;;;6.38;100.00;100148.28;6061523;23;20400;-90
2023/05/27 11:24:14;;;;;;;;;;;;;;;6.25;100.00;100137.13;6007091;23;19925;-89
2023/05/27 11:34:01;;;;;;;;;;;;;;;;;;;;;
2023/05/27 11:37:03;;;;;;;;;;;;;;;;;;;;;
2023/05/27 11:49:27;;;;;;;;;;;;;;;;;;;;;
2023/05/27 12:07:51;;;;;;;;;;;;;;;;;;;;;
2023/05/27 12:17:04;;;;;;;;;;;;;;;6.33;100.00;100079.97;5791174;24;20388;-89
2023/05/27 12:20:27;;;;;;;;;;;;;;;6.41;100.00;100082.41;5821698;24;19920;-89
2023/05/27 12:29:27;;;;;;;;;;;;;;;;;;;;;
2023/05/27 12:35:12;;;;;;;;;;;;;;;6.49;100.00;100056.81;5994170;23;19954;-87
2023/05/27 12:38:08;;;;;;;;;;;;;;;6.41;100.00;100066.63;6008933;23;20005;-89
2023/05/27 12:40:57;;;;;;;;;;;;;;;6.43;100.00;100054.31;6030096;23;19914;-90
2023/05/27 12:46:24;;;;;;;;;;;;;;;6.32;100.00;100051.91;6154440;23;20396;-90
2023/05/27 12:48:52;;;;;;;;;;;;;;;6.39;100.00;100047.38;6159609;23;20296;-89
2023/05/27 12:58:25;;;;;;;;;;;;;;;6.37;100.00;100036.03;6087120;23;20234;-89
2023/05/27 13:01:04;;;;;;;;;;;;;;;;;;;;;
2023/05/27 13:03:29;;;;;;;;;;;;;;;6.28;100.00;100025.69;6185438;23;20002;-87
2023/05/27 13:05:55;;;;;;;;;;;;;;;6.30;100.00;100027.41;6159713;23;19939;-85
2023/05/27 13:11:31;;;;;;;;;;;;;;;;;;;;;
2023/05/27 13:20:43;;;;;;;;;;;;;;;;;;;;;
2023/05/27 13:39:44;;;;;;;;;;;;;;;;;;;;;
2023/05/27 13:48:46;;;;;;;;;;;;;;;6.44;100.00;99992.84;5842838;24;20358;-88
2023/05/27 13:54:48;;;;;;;;;;;;;;;;;;;;;
2023/05/27 13:57:27;;;;;;;;;;;;;;;6.30;100.00;99980.03;5936458;24;20034;-89
2023/05/27 14:00:38;;;;;;;;;;;;;;;;;;;;;
2023/05/27 14:06:41;;;;;;;;;;;;;;;6.46;100.00;99979.66;5969083;24;19929;-87
2023/05/27 14:14:57;;;;;;;;;;;;;;;6.35;100.00;99958.84;6152655;23;19931;-88
2023/05/27 14:21:01;;;;;;;;;;;;;;;6.43;100.00;99949.03;6143523;23;19923;-87
2023/05/27 14:24:02;;;;;;;;;;;;;;;;;;;;;
2023/05/27 14:30:16;;;;;;;;;;;;;;;;;;;;;
2023/05/27 14:33:18;;;;;;;;;;;;;;;;;;;;;
2023/05/27 14:42:07;;;;;;;;;;;;;;;6.41;100.00;99929.75;6116513;23;19959;-88
2023/05/27 14:44:46;;;;;;;;;;;;;;;6.35;100.00;99928.16;6153474;23;19912;-88
2023/05/27 14:47:14;;;;;;;;;;;;;;;6.34;100.00;99929.03;6128888;23;19935;-89
2023/05/27 14:49:54;;;;;;;;;;;;;;;6.32;100.00;99930.84;6154941;23;19980;-89
2023/05/27 14:52:49;;;;;;;;;;;;;;;;;;;;;
2023/05/27 14:55:14;;;;;;;;;;;;;;;6.40;100.00;99930.66;6154922;23;20307;-87
2023/05/27 14:58:00;;;;;;;;;;;;;;;6.47;100.00;99940.13;6155150;23;19956;-89
2023/05/27 15:01:04;;;;;;;;;;;;;;;;;;;;;
2023/05/27 15:04:11;;;;;;;;;;;;;;;6.35;100.00;99932.53;6154698;23;19984;-87
2023/05/27 15:07:14;;;;;;;;;;;;;;;;;;;;;
2023/05/27 15:15:43;;;;;;;;;;;;;;;6.58;100.00;99934.63;6142287;23;19920;-86
2023/05/27 15:18:32;;;;;;;;;;;;;;;6.45;100.00;99941.94;6155211;23;19916;-88
2023/05/27 15:21:29;;;;;;;;;;;;;;;6.47;100.00;99941.91;6110698;23;20288;-87
2023/05/27 15:24:17;;;;;;;;;;;;;;;6.41;100.00;99931.53;6152244;23;19916;-87
2023/05/27 15:33:00;;;;;;;;;;;;;;;6.32;100.00;99928.22;6033355;23;20417;-86
2023/05/27 15:39:07;;;;;;;;;;;;;;;;;;;;;
2023/05/27 15:41:51;;;;;;;;;;;;;;;6.38;100.00;99921.06;5999671;23;20000;-89
2023/05/27 15:44:16;;;;;;;;;;;;;;;6.32;100.00;99920.31;6102357;23;20222;-86
2023/05/27 15:46:53;;;;;;;;;;;;;;;6.52;100.00;99916.34;6130527;23;20007;-88
2023/05/27 15:49:26;;;;;;;;;;;;;;;6.52;100.00;99911.94;6156684;23;19948;-88
2023/05/27 15:52:10;;;;;;;;;;;;;;;6.40;100.00;99914.00;6156609;23;19944;-87
2023/05/27 15:54:45;;;;;;;;;;;;;;;6.39;100.00;99915.78;6155625;23;20321;-86
2023/05/27 15:57:20;;;;;;;;;;;;;;;6.39;100.00;99907.03;6129591;23;19932;-89
2023/05/27 16:09:09;;;;;;;;;;;;;;;;;;;;;
2023/05/27 16:14:40;;;;;;;;;;;;;;;6.27;100.00;99895.00;5904399;24;19926;-88
2023/05/27 16:17:08;;;;;;;;;;;;;;;6.41;100.00;99889.41;6008169;23;19922;-86
2023/05/27 16:20:21;;;;;;;;;;;;;;;;;;;;;
2023/05/27 16:23:15;;;;;;;;;;;;;;;6.26;100.00;99886.25;6062482;23;19996;-84
2023/05/27 16:25:41;;;;;;;;;;;;;;;6.38;100.00;99884.22;6041411;23;19921;-86
2023/05/27 16:28:29;;;;;;;;;;;;;;;6.43;100.00;99877.97;6039136;23;19918;-86
2023/05/27 16:30:57;;;;;;;;;;;;;;;6.45;100.00;99883.19;6063840;23;19921;-85
2023/05/27 16:33:45;;;;;;;;;;;;;;;6.55;100.00;99884.69;6041356;23;19915;-86
2023/05/27 16:36:23;;;;;;;;;;;;;;;;;;;;;
2023/05/27 16:39:16;;;;;;;;;;;;;;;;;;;;;
2023/05/27 16:41:59;;;;;;;;;;;;;;;6.35;100.00;99871.97;6065790;23;20406;-86
2023/05/27 16:44:34;;;;;;;;;;;;;;;6.36;100.00;99871.09;6040322;23;19924;-87
2023/05/27 16:47:07;;;;;;;;;;;;;;;6.39;100.00;99867.53;6063850;23;19936;-87
2023/05/27 16:52:56;;;;;;;;;;;;;;;6.33;100.00;99863.28;6155633;23;19936;-87
2023/05/27 16:55:48;;;;;;;;;;;;;;;;;;;;;
2023/05/27 16:58:37;;;;;;;;;;;;;;;6.29;100.00;99866.91;6155856;23;20011;-87
2023/05/27 17:01:14;;;;;;;;;;;;;;;6.37;100.00;99867.56;6074312;23;19913;-86
2023/05/27 17:06:40;;;;;;;;;;;;;;;6.32;100.00;99865.06;6154747;23;19924;-86
2023/05/27 17:09:08;;;;;;;;;;;;;;;6.33;100.00;99860.63;6128667;23;19936;-87
2023/05/27 17:12:14;;;;;;;;;;;;;;;6.29;100.00;99861.63;6130030;23;19936;-89
2023/05/27 17:14:43;;;;;;;;;;;;;;;6.27;100.00;99866.94;6151527;23;19944;-85
2023/05/27 17:17:11;;;;;;;;;;;;;;;6.28;100.00;99868.66;6125038;23;19928;-85
2023/05/27 17:20:06;;;;;;;;;;;;;;;6.47;100.00;99871.69;6100243;23;20267;-86
2023/05/27 17:22:38;;;;;;;;;;;;;;;6.34;100.00;99865.88;6122424;23;19921;-88
2023/05/27 17:25:26;;;;;;;;;;;;;;;6.28;100.00;99867.78;6099320;23;20027;-87
2023/05/27 17:27:59;;;;;;;;;;;;;;;6.29;100.00;99870.38;6125272;23;19913;-86
2023/05/27 17:30:40;;;;;;;;;;;;;;;;;;;;;
2023/05/27 17:33:16;;;;;;;;;;;;;;;6.33;100.00;99869.41;6126846;23;19996;-90
2023/05/27 17:35:45;;;;;;;;;;;;;;;6.32;100.00;99861.56;6125681;23;19921;-87
2023/05/27 17:38:20;;;;;;;;;;;;;;;;;;;;;
2023/05/27 17:43:41;;;;;;;;;;;;;;;6.33;100.00;99864.16;6110510;23;19960;-87
2023/05/27 17:46:24;;;;;;;;;;;;;;;;;;;;;
2023/05/27 17:49:20;;;;;;;;;;;;;;;;;;;;;
2023/05/27 17:52:08;;;;;;;;;;;;;;;6.34;100.00;99870.28;6012382;23;20008;-86
2023/05/27 17:54:49;;;;;;;;;;;;;;;6.28;100.00;99868.66;5980252;24;20186;-89
2023/05/27 17:57:17;;;;;;;;;;;;;;;6.33;100.00;99869.41;5978812;23;20001;-86
2023/05/27 17:59:52;;;;;;;;;;;;;;;6.25;100.00;99871.34;5977817;24;19919;-88
2023/05/27 18:02:36;;;;;;;;;;;;;;;;;;;;;
2023/05/27 18:08:46;;;;;;;;;;;;;;;;;;;;;
2023/05/27 18:11:23;;;;;;;;;;;;;;;6.31;100.00;99865.94;5971576;24;19925;-88
2023/05/27 18:14:21;;;;;;;;;;;;;;;;;;;;;
2023/05/27 18:17:10;;;;;;;;;;;;;;;6.31;100.00;99870.34;6121724;23;19988;-87
2023/05/27 18:19:48;;;;;;;;;;;;;;;;;;;;;
2023/05/27 18:25:24;;;;;;;;;;;;;;;6.26;100.00;99873.09;6125460;23;20406;-88
2023/05/27 18:27:57;;;;;;;;;;;;;;;6.21;100.00;99869.72;6154895;23;19921;-87
2023/05/27 18:30:27;;;;;;;;;;;;;;;6.24;100.00;99874.91;6154248;23;19999;-90
2023/05/27 18:33:22;;;;;;;;;;;;;;;6.32;100.00;99870.31;6155205;23;20468;-87
2023/05/27 18:39:21;;;;;;;;;;;;;;;6.20;100.00;99877.63;6064710;23;20373;-89
2023/05/27 18:42:07;;;;;;;;;;;;;;;6.22;100.00;99887.19;6135624;23;19925;-89
2023/05/27 18:45:02;;;;;;;;;;;;;;;6.13;100.00;99880.41;6159036;23;20279;-89
2023/05/27 18:54:10;;;;;;;;;;;;;;;6.13;100.00;99882.19;6154144;23;19986;-90
2023/05/27 19:00:06;;;;;;;;;;;;;;;;;;;;;
2023/05/27 19:02:41;;;;;;;;;;;;;;;6.15;100.00;99891.75;6185657;23;20403;-87
2023/05/27 19:07:54;;;;;;;;;;;;;;;6.16;100.00;99892.63;6153678;23;19921;-87
2023/05/27 19:13:43;;;;;;;;;;;;;;;6.16;100.00;99895.28;6153257;23;19917;-91
2023/05/27 19:16:11;;;;;;;;;;;;;;;6.21;100.00;99889.88;6154767;23;19916;-85
2023/05/27 19:18:44;;;;;;;;;;;;;;;6.22;100.00;99895.09;6128360;23;20217;-88
2023/05/27 19:21:12;;;;;;;;;;;;;;;6.17;100.00;99889.09;6130080;23;19944;-94
2023/05/27 19:23:45;;;;;;;;;;;;;;;6.17;100.00;99884.72;6128582;23;19924;-88
2023/05/27 19:26:13;;;;;;;;;;;;;;;6.18;100.00;99888.19;6155262;23;20031;-88
2023/05/27 19:28:44;;;;;;;;;;;;;;;6.21;100.00;99890.75;6128853;23;20564;-87
2023/05/27 19:31:43;;;;;;;;;;;;;;;6.24;100.00;99888.06;6154640;23;20004;-89
2023/05/27 19:34:10;;;;;;;;;;;;;;;6.18;100.00;99890.81;6128867;23;19944;-87
2023/05/27 19:36:56;;;;;;;;;;;;;;;6.14;100.00;99894.41;6155299;23;19921;-88
2023/05/27 19:39:31;;;;;;;;;;;;;;;6.16;100.00;99892.63;6152963;23;19917;-90
2023/05/27 19:42:25;;;;;;;;;;;;;;;6.17;100.00;99895.22;6151527;23;19917;-87
2023/05/27 19:44:50;;;;;;;;;;;;;;;6.17;100.00;99891.72;6152451;23;19912;-87
2023/05/27 19:50:10;;;;;;;;;;;;;;;6.11;100.00;99899.75;6154235;23;19917;-87
2023/05/27 19:52:36;;;;;;;;;;;;;;;6.09;100.00;99891.03;6153179;23;19948;-85
2023/05/27 19:55:30;;;;;;;;;;;;;;;6.11;100.00;99894.47;6154700;23;19932;-92
2023/05/27 19:57:56;;;;;;;;;;;;;;;6.08;100.00;99902.44;6049015;23;19914;-84
2023/05/27 20:00:23;;;;;;;;;;;;;;;6.10;100.00;99900.66;6152176;23;19951;-85
2023/05/27 20:02:49;;;;;;;;;;;;;;;6.00;100.00;99898.22;6153608;23;19963;-87
2023/05/27 20:05:14;;;;;;;;;;;;;;;6.09;100.00;99901.56;6128455;23;19968;-86
2023/05/27 20:07:45;;;;;;;;;;;;;;;6.03;100.00;99904.31;6153931;23;19943;-90
2023/05/27 20:10:11;;;;;;;;;;;;;;;6.10;100.00;99900.66;6153841;23;19916;-86
2023/05/27 20:12:48;;;;;;;;;;;;;;;6.04;100.00;99903.44;6154535;23;20252;-88
2023/05/27 20:15:17;;;;;;;;;;;;;;;6.03;100.00;99902.56;6127029;23;19916;-86
2023/05/27 20:17:42;;;;;;;;;;;;;;;6.02;100.00;99900.84;6155088;23;19909;-85
2023/05/27 20:22:36;;;;;;;;;;;;;;;6.03;100.00;99899.94;6154187;23;19925;-85
2023/05/27 20:25:01;;;;;;;;;;;;;;;6.02;100.00;99890.31;6130182;23;19917;-87
2023/05/27 20:27:27;;;;;;;;;;;;;;;6.07;100.00;99898.97;6156912;23;19942;-88
2023/05/27 20:29:53;;;;;;;;;;;;;;;6.00;100.00;99900.88;6152737;23;19921;-86
2023/05/27 20:32:38;;;;;;;;;;;;;;;5.96;100.00;99901.81;6129462;23;20333;-88
2023/05/27 20:35:04;;;;;;;;;;;;;;;5.96;100.00;99901.81;6129306;23;19919;-85
2023/05/27 20:37:30;;;;;;;;;;;;;;;5.99;100.00;99906.16;6156125;23;19935;-83
2023/05/27 20:39:58;;;;;;;;;;;;;;;5.97;100.00;99903.56;6155959;23;20252;-87
2023/05/27 20:42:32;;;;;;;;;;;;;;;6.01;100.00;99901.72;6155319;23;19916;-84
2023/05/27 20:44:57;;;;;;;;;;;;;;;6.04;100.00;99908.69;6154412;23;19945;-87
2023/05/27 20:47:22;;;;;;;;;;;;;;;5.97;100.00;99898.31;6128860;23;19963;-84
2023/05/27 20:49:52;;;;;;;;;;;;;;;5.97;100.00;99903.56;6129920;23;20384;-86
2023/05/27 20:52:21;;;;;;;;;;;;;;;6.00;100.00;99906.13;6129048;23;19916;-87
2023/05/27 20:54:46;;;;;;;;;;;;;;;6.00;100.00;99897.38;6155459;23;19924;-88
2023/05/27 20:57:11;;;;;;;;;;;;;;;6.02;100.00;99899.97;6129801;23;19993;-86
2023/05/27 20:59:37;;;;;;;;;;;;;;;6.04;100.00;99892.91;6128435;23;19994;-86
2023/05/27 21:02:12;;;;;;;;;;;;;;;5.96;100.00;99901.81;6155637;23;19913;-83
2023/05/27 21:04:43;;;;;;;;;;;;;;;6.00;100.00;99903.50;6155083;23;19924;-89
2023/05/27 21:07:08;;;;;;;;;;;;;;;6.01;100.00;99901.72;6155099;23;19909;-82
2023/05/27 21:09:36;;;;;;;;;;;;;;;6.00;100.00;99892.97;6155143;23;19995;-85
2023/05/27 21:12:01;;;;;;;;;;;;;;;9.19;100.00;99890.00;6155730;23;19927;-85
2023/05/27 21:14:26;;;;;;;;;;;;;;;7.06;100.00;99899.19;6153522;23;19968;-87
2023/05/27 21:16:55;;;;;;;;;;;;;;;6.57;100.00;99901.28;6155666;23;19909;-89
2023/05/27 21:19:20;;;;;;;;;;;;;;;6.44;100.00;99899.88;6155961;23;19924;-83
2023/05/27 21:21:53;;;;;;;;;;;;;;;6.26;100.00;99899.41;6155675;23;19917;-84
2023/05/27 21:24:18;;;;;;;;;;;;;;;6.22;100.00;99902.13;6155122;23;19916;-85
2023/05/27 21:26:49;;;;;;;;;;;;;;;6.13;100.00;99903.22;6130033;23;19993;-84
2023/05/27 21:29:14;;;;;;;;;;;;;;;6.09;100.00;99899.78;6154441;23;20245;-86
2023/05/27 21:31:42;;;;;;;;;;;;;;;6.16;100.00;99897.91;6155458;23;19923;-87
2023/05/27 21:34:08;;;;;;;;;;;;;;;6.09;100.00;99896.28;6155488;23;19955;-86
2023/05/27 21:36:33;;;;;;;;;;;;;;;6.09;100.00;99894.53;6155753;23;19917;-85
2023/05/27 21:39:01;;;;;;;;;;;;;;;6.09;100.00;99896.28;6155438;23;19917;-86
2023/05/27 21:41:30;;;;;;;;;;;;;;;6.00;100.00;99897.38;6155642;23;19912;-89
2023/05/27 21:43:59;;;;;;;;;;;;;;;6.03;100.00;99894.69;6127685;23;19960;-88
2023/05/27 21:46:25;;;;;;;;;;;;;;;6.04;100.00;99895.53;6130186;23;19975;-87
2023/05/27 21:49:14;;;;;;;;;;;;;;;6.00;100.00;99890.34;6129648;23;20357;-86
2023/05/27 21:51:57;;;;;;;;;;;;;;;6.02;100.00;99885.06;6154717;23;19916;-90
2023/05/27 21:57:48;;;;;;;;;;;;;;;6.10;100.00;99884.88;6099824;23;19919;-91
2023/05/27 22:03:39;;;;;;;;;;;;;;;6.07;100.00;99884.94;6063325;23;19914;-89
2023/05/27 22:12:12;;;;;;;;;;;;;;;5.95;100.00;99876.41;5979895;24;19915;-91
2023/05/27 22:14:49;;;;;;;;;;;;;;;6.04;100.00;99871.88;6101991;23;19932;-90
2023/05/27 22:17:43;;;;;;;;;;;;;;;6.02;100.00;99876.31;6154549;23;19936;-90
2023/05/27 22:20:38;;;;;;;;;;;;;;;6.05;100.00;99869.19;6151040;23;20299;-91
2023/05/27 22:26:22;;;;;;;;;;;;;;;5.98;100.00;99868.47;6066263;23;19914;-92
2023/05/27 22:29:14;;;;;;;;;;;;;;;5.92;100.00;99862.44;6120668;23;19946;-90
2023/05/27 22:31:48;;;;;;;;;;;;;;;5.99;100.00;99854.41;6085241;23;19917;-91
2023/05/27 22:37:13;;;;;;;;;;;;;;;5.92;100.00;99859.81;6148943;22;19921;-91
2023/05/27 22:39:39;;;;;;;;;;;;;;;5.94;100.00;99856.25;6129441;23;19916;-92
2023/05/27 22:42:10;;;;;;;;;;;;;;;5.98;100.00;99852.69;6127838;23;20314;-90
2023/05/27 22:44:45;;;;;;;;;;;;;;;5.92;100.00;99852.81;6152683;23;19916;-91
2023/05/27 22:56:16;;;;;;;;;;;;;;;5.92;100.00;99852.81;6033645;23;19960;-93
2023/05/27 23:08:29;;;;;;;;;;;;;;;5.93;100.00;99843.13;6051842;23;19988;-88
2023/05/27 23:14:01;;;;;;;;;;;;;;;5.87;100.00;99841.53;6182995;23;19962;-89
2023/05/27 23:19:35;;;;;;;;;;;;;;;;;;;;;
2023/05/27 23:22:08;;;;;;;;;;;;;;;5.82;100.00;99835.47;6062754;23;19996;-89
2023/05/27 23:25:07;;;;;;;;;;;;;;;;;;;;;
